Archival Weather

Phoenix Deer Valley

Phoenix, Arizona (KDVT)

Report from: Monday, August 15, 2022 1:53 AM MST
Current time: Tuesday, June 18, 2024 5:38 AM MST

Current weather – Weather history – Daily summaries
Weather forecast

Temperature26.7°C (80.1°F)
Heat index28.6°C (83.5°F)
Dew point21.1°C (70.0°F)
Winds 3 kts (1.5 m/s, 3.5 mph) North-Northwest (340°)
Visibility10 mi. (16.1 km)
Clouds Sky clear
Altimeter29.88 in.Hg (1012 mB)
Relative humidity71 %
Density altitude1,824 ft. (556 m)
Sea-level pressure100.9 kPa (1009 mB, 29.80 in.Hg)
Remarks Fully automated report
Automated weather observing station with precipitation discriminator
Pressure falling more quickly
Flight conditions Visual Meteorological Conditions
Raw dataKDVT 150853Z AUTO 34003KT 10SM CLR 27/21 A2988 RMK AO2 SLP092 T02670211 58014
An error has occurred. This application may no longer respond until reloaded. Reload 🗙